LEAS/OVD METAR and TAF weather

Enter ICAO airport designator
Station Type Date Time Source
LEAS METAR 2019/12/07 07:30 UTC NOAA

LEAS 070730Z 24007KT 9999 FEW030 BKN043 10/06 Q1023 NOSIG


Station Type Date Time Source
LEAS Decoded METAR 2019/12/07 07:30 UTC NOAA

Asturias / Aviles, Spain (LEAS) 43-33N 006-02W 130M
Dec 07, 2019 - 02:30 AM EST / 2019.12.07 0730 UTC
Wind: from the WSW (240 degrees) at 8 MPH (7 KT):0
Visibility: greater than 7 mile(s):0
Sky conditions: mostly cloudy
Temperature: 50 F (10 C)
Dew Point: 42 F (6 C)
Relative Humidity: 76%
Pressure (altimeter): 30.21 in. Hg (1023 hPa)
ob: LEAS 070730Z 24007KT 9999 FEW030 BKN043 10/06 Q1023 NOSIG
cycle: 7

Station Type Date Time Source
LEAS TAF 2019/12/07 03:30 UTC NOAA

TAF LEAS 070200Z 0703/0803 22006KT CAVOK TX17/0714Z TN07/0705Z PROB30
TEMPO 0703/0706 BKN014

Example: see airport list